Flight Track Log - Related Links

Times and Time Zones

All times are in EDT time to prevent confusion due to time zone crossing. See the SWA378 flight status page for this flight to view local times or setup timezone preferences in your user account.

Time Position Orientation Groundspeed Altitude Reporting Facility
EDT Latitude Longitude Course Direction KTS MPH feet Rate Location/Type
Tue 08:19:45 PM 36.9222 -76.1792 26° Northeast 178 205 1,800  Level Washington Center
Tue 08:20:37 PM 36.9706 -76.1406 33° Northeast 228 262 5,000 3,939 Climbing Washington Center
Tue 08:21:56 PM 37.0625 -76.1019 19° North 306 352 10,400 3,842 Climbing Washington Center
Tue 08:22:56 PM 37.1544 -76.0608 20° North 311 358 13,900 2,777 Climbing Washington Center
Tue 08:23:57 PM 37.2464 -76.0172 21° North 329 379 16,000 1,041 Climbing Washington Center
Tue 08:24:57 PM 37.3444 -75.9758 19° North 351 404 16,000  Level Washington Center
Tue 08:25:58 PM 37.4447 -75.9267 21° North 366 421 16,000  Level Washington Center
Tue 08:26:58 PM 37.5472 -75.8853 18° North 371 427 16,000 -51 Level Washington Center
Tue 08:27:56 PM 37.6431 -75.8383 21° North 371 427 15,900 -50 Descending Washington Center
Tue 08:28:57 PM 37.7372 -75.7939 20° North 361 415 15,900 -198 Level Washington Center
Tue 08:29:57 PM 37.8289 -75.7522 20° North 355 409 15,500 -496 Descending Washington Center
Tue 08:30:58 PM 37.9186 -75.7103 20° North 348 400 14,900 -298 Descending Washington Center
Tue 08:31:58 PM 38.0064 -75.6733 18° North 343 395 14,900 102 Level Washington Center
Tue 08:32:56 PM 38.0917 -75.6286 22° Northeast 333 383 15,100 -153 Climbing Washington Center
Tue 08:33:56 PM 38.1794 -75.5864 21° North 333 383 14,600 -496 Descending Washington Center
Tue 08:34:57 PM 38.2692 -75.5414 21° North 333 383 14,100 -541 Descending Washington Center
Tue 08:35:58 PM 38.3650 -75.5097 15° North 339 390 13,500 -555 Descending Washington Center
Tue 08:36:56 PM 38.4589 -75.5094 360° North 339 390 13,000 -252 Descending Washington Center
Tue 08:37:57 PM 38.5464 -75.5119 359° North 327 376 13,000  Level Washington Center
Tue 08:38:58 PM 38.6381 -75.5119 360° North 327 376 13,000  Level Washington Center
Tue 08:39:58 PM 38.7089 -75.5625 331° Northwest 307 353 13,000 -203 Level Washington Center
Tue 08:40:56 PM 38.7486 -75.6636 297° West 283 326 12,600 -508 Descending Washington Center
Tue 08:41:56 PM 38.7922 -75.7622 300° West 306 352 12,000 -600 Descending Washington Center
Tue 08:42:56 PM 38.8358 -75.8633 299° West 316 364 11,400 -492 Descending Washington Center
Tue 08:43:58 PM 38.8772 -75.9650 298° West 321 369 11,000 -393 Descending Washington Center
Tue 08:44:58 PM 38.8956 -76.0717 282° West 305 351 10,600 -458 Descending Washington Center
Tue 08:45:56 PM 38.8661 -76.1489 244° Southwest 292 336 10,100 -655 Descending Washington Center
Tue 08:46:57 PM 38.8219 -76.2631 244° Southwest 297 342 9,300 -1,091 Descending Washington Center
Tue 08:47:57 PM 38.8589 -76.3594 296° West 284 327 7,900 -1,683 Descending Washington Center
Tue 08:48:19 PM 38.8833 -76.4000 308° West 306 352 7,000 -1,756 Descending Potomac TRACON
Tue 08:49:19 PM 38.9333 -76.5000 303° West 301 346 5,500 -1,400 Descending Potomac TRACON
Tue 08:50:19 PM 38.9667 -76.5833 297° West 291 335 4,200 -750 Descending Potomac TRACON
Tue 08:51:19 PM 39.0000 -76.6667 297° West 258 297 4,000 -100 Descending Potomac TRACON
Tue 08:52:19 PM 39.0333 -76.7500 297° West 256 295 4,000  Level Potomac TRACON
Tue 08:53:19 PM 39.0667 -76.8167 303° West 259 298 4,000  Level Potomac TRACON
Tue 08:54:19 PM 39.1000 -76.9167 293° West 261 300 4,000  Level Potomac TRACON
Tue 08:55:19 PM 39.1333 -77.0000 297° West 264 304 4,000 -209 Level Potomac TRACON
Tue 08:56:14 PM 39.1667 -76.9667 38° Northeast 210 242 3,600 -500 Descending Potomac TRACON
Tue 08:57:19 PM 39.2167 -76.9500 14° North 206 237 3,000 -288 Descending Potomac TRACON
Tue 08:58:19 PM 39.2667 -77.0000 322° Northwest 217 250 3,000  Level Potomac TRACON
Tue 08:59:19 PM 39.2167 -77.0000 180° South 168 193 3,000 -450 Level Potomac TRACON
Tue 09:00:19 PM 39.2000 -76.9667 123° Southeast 162 186 2,100 -522 Descending Potomac TRACON
Tue 09:01:14 PM 39.1833 -76.9167 113° Southeast 150 173 2,000 -109 Descending Potomac TRACON

Login

Don't have an account? Register now (free) for customized features, flight alerts, and more!